sensor_id;sensor_type;location;lat;lon;timestamp;P1;durP1;ratioP1;P2;durP2;ratioP2
80698;SDS011;70062;51.658;5.658;2023-08-12T00:01:21;0.00;;;0.00;;
80698;SDS011;70062;51.658;5.658;2023-08-12T00:03:47;0.00;;;0.00;;
80698;SDS011;70062;51.658;5.658;2023-08-12T00:06:13;0.10;;;0.10;;
80698;SDS011;70062;51.658;5.658;2023-08-12T00:08:38;0.00;;;0.00;;
80698;SDS011;70062;51.658;5.658;2023-08-12T00:11:04;0.00;;;0.00;;
80698;SDS011;70062;51.658;5.658;2023-08-12T00:13:29;0.00;;;0.00;;
80698;SDS011;70062;51.658;5.658;2023-08-12T00:15:55;0.00;;;0.00;;
80698;SDS011;70062;51.658;5.658;2023-08-12T00:18:21;0.00;;;0.00;;
80698;SDS011;70062;51.658;5.658;2023-08-12T00:20:47;0.00;;;0.00;;
80698;SDS011;70062;51.658;5.658;2023-08-12T00:23:12;0.00;;;0.00;;
80698;SDS011;70062;51.658;5.658;2023-08-12T00:25:38;0.00;;;0.00;;
80698;SDS011;70062;51.658;5.658;2023-08-12T00:28:03;0.00;;;0.00;;
80698;SDS011;70062;51.658;5.658;2023-08-12T00:30:29;0.00;;;0.00;;
80698;SDS011;70062;51.658;5.658;2023-08-12T00:32:54;0.00;;;0.00;;
80698;SDS011;70062;51.658;5.658;2023-08-12T00:35:19;0.00;;;0.00;;
80698;SDS011;70062;51.658;5.658;2023-08-12T00:37:45;0.00;;;0.00;;
80698;SDS011;70062;51.658;5.658;2023-08-12T00:40:10;0.00;;;0.00;;
80698;SDS011;70062;51.658;5.658;2023-08-12T00:42:36;0.00;;;0.00;;
80698;SDS011;70062;51.658;5.658;2023-08-12T00:45:01;0.00;;;0.00;;
80698;SDS011;70062;51.658;5.658;2023-08-12T00:47:27;0.00;;;0.00;;
80698;SDS011;70062;51.658;5.658;2023-08-12T00:49:54;0.00;;;0.00;;
80698;SDS011;70062;51.658;5.658;2023-08-12T00:52:22;0.00;;;0.00;;
80698;SDS011;70062;51.658;5.658;2023-08-12T00:54:47;0.00;;;0.00;;
80698;SDS011;70062;51.658;5.658;2023-08-12T00:57:13;0.00;;;0.00;;
80698;SDS011;70062;51.658;5.658;2023-08-12T00:59:38;0.10;;;0.10;;
80698;SDS011;70062;51.658;5.658;2023-08-12T01:02:06;0.00;;;0.00;;
80698;SDS011;70062;51.658;5.658;2023-08-12T01:04:31;0.00;;;0.00;;
80698;SDS011;70062;51.658;5.658;2023-08-12T01:06:57;0.00;;;0.00;;
80698;SDS011;70062;51.658;5.658;2023-08-12T01:09:22;0.00;;;0.00;;
80698;SDS011;70062;51.658;5.658;2023-08-12T01:12:09;0.00;;;0.00;;
80698;SDS011;70062;51.658;5.658;2023-08-12T01:14:41;0.10;;;0.10;;
80698;SDS011;70062;51.658;5.658;2023-08-12T01:17:14;0.00;;;0.00;;
80698;SDS011;70062;51.658;5.658;2023-08-12T01:19:40;0.00;;;0.00;;
80698;SDS011;70062;51.658;5.658;2023-08-12T01:22:08;0.00;;;0.00;;
80698;SDS011;70062;51.658;5.658;2023-08-12T01:24:38;0.00;;;0.00;;
80698;SDS011;70062;51.658;5.658;2023-08-12T01:27:09;0.00;;;0.00;;
80698;SDS011;70062;51.658;5.658;2023-08-12T01:29:37;0.00;;;0.00;;
80698;SDS011;70062;51.658;5.658;2023-08-12T01:35:10;0.00;;;0.00;;
80698;SDS011;70062;51.658;5.658;2023-08-12T01:37:44;0.00;;;0.00;;
80698;SDS011;70062;51.658;5.658;2023-08-12T01:40:13;0.00;;;0.00;;
80698;SDS011;70062;51.658;5.658;2023-08-12T01:42:40;0.00;;;0.00;;
80698;SDS011;70062;51.658;5.658;2023-08-12T01:45:06;0.00;;;0.00;;
80698;SDS011;70062;51.658;5.658;2023-08-12T01:47:32;0.00;;;0.00;;
80698;SDS011;70062;51.658;5.658;2023-08-12T01:49:57;0.00;;;0.00;;
80698;SDS011;70062;51.658;5.658;2023-08-12T01:52:23;0.00;;;0.00;;
80698;SDS011;70062;51.658;5.658;2023-08-12T01:54:49;0.00;;;0.00;;
80698;SDS011;70062;51.658;5.658;2023-08-12T01:57:14;0.00;;;0.00;;
80698;SDS011;70062;51.658;5.658;2023-08-12T01:59:40;0.00;;;0.00;;
80698;SDS011;70062;51.658;5.658;2023-08-12T02:02:06;0.00;;;0.00;;
80698;SDS011;70062;51.658;5.658;2023-08-12T02:04:32;0.10;;;0.00;;
80698;SDS011;70062;51.658;5.658;2023-08-12T02:06:59;0.00;;;0.00;;
80698;SDS011;70062;51.658;5.658;2023-08-12T02:09:24;0.00;;;0.00;;
80698;SDS011;70062;51.658;5.658;2023-08-12T02:11:50;0.00;;;0.00;;
80698;SDS011;70062;51.658;5.658;2023-08-12T02:14:15;0.00;;;0.00;;
80698;SDS011;70062;51.658;5.658;2023-08-12T02:16:41;0.00;;;0.00;;
80698;SDS011;70062;51.658;5.658;2023-08-12T02:19:06;0.00;;;0.00;;
80698;SDS011;70062;51.658;5.658;2023-08-12T02:21:31;0.00;;;0.00;;
80698;SDS011;70062;51.658;5.658;2023-08-12T02:23:57;0.00;;;0.00;;
80698;SDS011;70062;51.658;5.658;2023-08-12T02:26:22;0.00;;;0.00;;
80698;SDS011;70062;51.658;5.658;2023-08-12T02:28:48;0.00;;;0.00;;
80698;SDS011;70062;51.658;5.658;2023-08-12T02:31:14;0.00;;;0.00;;
80698;SDS011;70062;51.658;5.658;2023-08-12T02:33:40;0.00;;;0.00;;
80698;SDS011;70062;51.658;5.658;2023-08-12T02:36:06;0.00;;;0.00;;
80698;SDS011;70062;51.658;5.658;2023-08-12T02:38:31;0.00;;;0.00;;
80698;SDS011;70062;51.658;5.658;2023-08-12T02:40:57;0.00;;;0.00;;
80698;SDS011;70062;51.658;5.658;2023-08-12T02:43:22;0.00;;;0.00;;
80698;SDS011;70062;51.658;5.658;2023-08-12T02:45:48;0.00;;;0.00;;
80698;SDS011;70062;51.658;5.658;2023-08-12T02:48:13;0.00;;;0.00;;
80698;SDS011;70062;51.658;5.658;2023-08-12T02:50:39;0.00;;;0.00;;
80698;SDS011;70062;51.658;5.658;2023-08-12T02:53:05;0.00;;;0.00;;
80698;SDS011;70062;51.658;5.658;2023-08-12T02:55:31;0.00;;;0.00;;
80698;SDS011;70062;51.658;5.658;2023-08-12T02:58:00;0.00;;;0.00;;
80698;SDS011;70062;51.658;5.658;2023-08-12T03:00:26;0.00;;;0.00;;
80698;SDS011;70062;51.658;5.658;2023-08-12T03:02:52;0.00;;;0.00;;
80698;SDS011;70062;51.658;5.658;2023-08-12T03:05:18;0.00;;;0.00;;
80698;SDS011;70062;51.658;5.658;2023-08-12T03:07:44;0.00;;;0.00;;
80698;SDS011;70062;51.658;5.658;2023-08-12T03:10:10;0.00;;;0.00;;
80698;SDS011;70062;51.658;5.658;2023-08-12T03:12:35;0.00;;;0.00;;
80698;SDS011;70062;51.658;5.658;2023-08-12T03:15:01;0.00;;;0.00;;
80698;SDS011;70062;51.658;5.658;2023-08-12T03:17:27;0.10;;;0.10;;
80698;SDS011;70062;51.658;5.658;2023-08-12T03:19:52;0.00;;;0.00;;
80698;SDS011;70062;51.658;5.658;2023-08-12T03:22:19;0.00;;;0.00;;
80698;SDS011;70062;51.658;5.658;2023-08-12T03:24:45;0.00;;;0.00;;
80698;SDS011;70062;51.658;5.658;2023-08-12T03:27:10;0.00;;;0.00;;
80698;SDS011;70062;51.658;5.658;2023-08-12T03:29:36;0.00;;;0.00;;
80698;SDS011;70062;51.658;5.658;2023-08-12T03:32:01;0.00;;;0.00;;
80698;SDS011;70062;51.658;5.658;2023-08-12T03:34:28;0.00;;;0.00;;
80698;SDS011;70062;51.658;5.658;2023-08-12T03:36:54;0.00;;;0.00;;
80698;SDS011;70062;51.658;5.658;2023-08-12T03:39:20;0.00;;;0.00;;
80698;SDS011;70062;51.658;5.658;2023-08-12T03:41:45;0.00;;;0.00;;
80698;SDS011;70062;51.658;5.658;2023-08-12T03:44:11;0.00;;;0.00;;
80698;SDS011;70062;51.658;5.658;2023-08-12T03:46:36;0.00;;;0.00;;
80698;SDS011;70062;51.658;5.658;2023-08-12T03:49:01;0.00;;;0.00;;
80698;SDS011;70062;51.658;5.658;2023-08-12T03:51:27;0.00;;;0.00;;
80698;SDS011;70062;51.658;5.658;2023-08-12T03:53:52;0.00;;;0.00;;
80698;SDS011;70062;51.658;5.658;2023-08-12T03:56:18;0.00;;;0.00;;
80698;SDS011;70062;51.658;5.658;2023-08-12T03:58:43;0.00;;;0.00;;
80698;SDS011;70062;51.658;5.658;2023-08-12T04:01:08;0.00;;;0.00;;
80698;SDS011;70062;51.658;5.658;2023-08-12T04:03:34;0.10;;;0.00;;
80698;SDS011;70062;51.658;5.658;2023-08-12T04:05:59;0.00;;;0.00;;
80698;SDS011;70062;51.658;5.658;2023-08-12T04:08:24;0.00;;;0.00;;
80698;SDS011;70062;51.658;5.658;2023-08-12T04:10:50;0.00;;;0.00;;
80698;SDS011;70062;51.658;5.658;2023-08-12T04:13:16;0.00;;;0.00;;
80698;SDS011;70062;51.658;5.658;2023-08-12T04:15:42;0.00;;;0.00;;
80698;SDS011;70062;51.658;5.658;2023-08-12T04:18:08;0.00;;;0.00;;
80698;SDS011;70062;51.658;5.658;2023-08-12T04:20:33;0.00;;;0.00;;
80698;SDS011;70062;51.658;5.658;2023-08-12T04:22:59;0.00;;;0.00;;
80698;SDS011;70062;51.658;5.658;2023-08-12T04:25:24;0.00;;;0.00;;
80698;SDS011;70062;51.658;5.658;2023-08-12T04:27:50;0.00;;;0.00;;
80698;SDS011;70062;51.658;5.658;2023-08-12T04:30:18;0.20;;;0.10;;
80698;SDS011;70062;51.658;5.658;2023-08-12T04:32:44;0.00;;;0.00;;
80698;SDS011;70062;51.658;5.658;2023-08-12T04:35:09;0.00;;;0.00;;
80698;SDS011;70062;51.658;5.658;2023-08-12T04:37:35;0.00;;;0.00;;
80698;SDS011;70062;51.658;5.658;2023-08-12T04:40:01;0.00;;;0.00;;
80698;SDS011;70062;51.658;5.658;2023-08-12T04:42:29;0.00;;;0.00;;
80698;SDS011;70062;51.658;5.658;2023-08-12T04:44:55;0.00;;;0.00;;
80698;SDS011;70062;51.658;5.658;2023-08-12T04:47:20;0.00;;;0.00;;
80698;SDS011;70062;51.658;5.658;2023-08-12T04:49:46;0.00;;;0.00;;
80698;SDS011;70062;51.658;5.658;2023-08-12T04:52:11;0.00;;;0.00;;
80698;SDS011;70062;51.658;5.658;2023-08-12T04:54:36;0.00;;;0.00;;
80698;SDS011;70062;51.658;5.658;2023-08-12T04:57:02;0.00;;;0.00;;
80698;SDS011;70062;51.658;5.658;2023-08-12T04:59:27;0.00;;;0.00;;
80698;SDS011;70062;51.658;5.658;2023-08-12T05:01:53;0.00;;;0.00;;
80698;SDS011;70062;51.658;5.658;2023-08-12T05:04:18;0.00;;;0.00;;
80698;SDS011;70062;51.658;5.658;2023-08-12T05:06:43;0.00;;;0.00;;
80698;SDS011;70062;51.658;5.658;2023-08-12T05:09:09;0.00;;;0.00;;
80698;SDS011;70062;51.658;5.658;2023-08-12T05:11:34;0.10;;;0.00;;
80698;SDS011;70062;51.658;5.658;2023-08-12T05:13:59;0.00;;;0.00;;
80698;SDS011;70062;51.658;5.658;2023-08-12T05:16:25;0.00;;;0.00;;
80698;SDS011;70062;51.658;5.658;2023-08-12T05:18:50;0.00;;;0.00;;
80698;SDS011;70062;51.658;5.658;2023-08-12T05:21:18;0.00;;;0.00;;
80698;SDS011;70062;51.658;5.658;2023-08-12T05:23:43;0.00;;;0.00;;
80698;SDS011;70062;51.658;5.658;2023-08-12T05:26:08;0.10;;;0.00;;
80698;SDS011;70062;51.658;5.658;2023-08-12T05:28:34;0.00;;;0.00;;
80698;SDS011;70062;51.658;5.658;2023-08-12T05:30:59;0.00;;;0.00;;
80698;SDS011;70062;51.658;5.658;2023-08-12T05:33:25;0.00;;;0.00;;
80698;SDS011;70062;51.658;5.658;2023-08-12T05:35:50;0.00;;;0.00;;
80698;SDS011;70062;51.658;5.658;2023-08-12T05:38:15;0.10;;;0.10;;
80698;SDS011;70062;51.658;5.658;2023-08-12T05:40:41;0.00;;;0.00;;
80698;SDS011;70062;51.658;5.658;2023-08-12T05:43:07;0.00;;;0.00;;
80698;SDS011;70062;51.658;5.658;2023-08-12T05:45:32;0.00;;;0.00;;
80698;SDS011;70062;51.658;5.658;2023-08-12T05:47:57;0.00;;;0.00;;
80698;SDS011;70062;51.658;5.658;2023-08-12T05:50:26;0.00;;;0.00;;
80698;SDS011;70062;51.658;5.658;2023-08-12T05:55:17;0.00;;;0.00;;
80698;SDS011;70062;51.658;5.658;2023-08-12T05:57:42;0.00;;;0.00;;
80698;SDS011;70062;51.658;5.658;2023-08-12T06:00:07;0.00;;;0.00;;
80698;SDS011;70062;51.658;5.658;2023-08-12T06:02:33;0.00;;;0.00;;
80698;SDS011;70062;51.658;5.658;2023-08-12T06:04:59;0.00;;;0.00;;
80698;SDS011;70062;51.658;5.658;2023-08-12T06:07:24;0.00;;;0.00;;
80698;SDS011;70062;51.658;5.658;2023-08-12T06:09:49;0.00;;;0.00;;
80698;SDS011;70062;51.658;5.658;2023-08-12T06:12:16;0.00;;;0.00;;
80698;SDS011;70062;51.658;5.658;2023-08-12T06:14:41;0.00;;;0.00;;
80698;SDS011;70062;51.658;5.658;2023-08-12T06:17:07;0.00;;;0.00;;
80698;SDS011;70062;51.658;5.658;2023-08-12T06:19:32;0.00;;;0.00;;
80698;SDS011;70062;51.658;5.658;2023-08-12T06:21:58;0.00;;;0.00;;
80698;SDS011;70062;51.658;5.658;2023-08-12T06:24:23;0.00;;;0.00;;
80698;SDS011;70062;51.658;5.658;2023-08-12T06:26:49;0.00;;;0.00;;
80698;SDS011;70062;51.658;5.658;2023-08-12T06:29:14;0.00;;;0.00;;
80698;SDS011;70062;51.658;5.658;2023-08-12T06:31:40;0.00;;;0.00;;
80698;SDS011;70062;51.658;5.658;2023-08-12T06:34:05;0.00;;;0.00;;
80698;SDS011;70062;51.658;5.658;2023-08-12T06:36:30;0.00;;;0.00;;
80698;SDS011;70062;51.658;5.658;2023-08-12T06:38:56;0.00;;;0.00;;
80698;SDS011;70062;51.658;5.658;2023-08-12T06:41:21;0.00;;;0.00;;
80698;SDS011;70062;51.658;5.658;2023-08-12T06:43:46;0.00;;;0.00;;
80698;SDS011;70062;51.658;5.658;2023-08-12T06:46:12;0.00;;;0.00;;
80698;SDS011;70062;51.658;5.658;2023-08-12T06:48:37;0.00;;;0.00;;
80698;SDS011;70062;51.658;5.658;2023-08-12T06:51:03;0.00;;;0.00;;
80698;SDS011;70062;51.658;5.658;2023-08-12T06:53:35;0.00;;;0.00;;
80698;SDS011;70062;51.658;5.658;2023-08-12T06:56:04;0.00;;;0.00;;
80698;SDS011;70062;51.658;5.658;2023-08-12T06:58:30;0.00;;;0.00;;
80698;SDS011;70062;51.658;5.658;2023-08-12T07:00:56;0.00;;;0.00;;
80698;SDS011;70062;51.658;5.658;2023-08-12T07:03:21;0.00;;;0.00;;
80698;SDS011;70062;51.658;5.658;2023-08-12T07:05:50;0.00;;;0.00;;
80698;SDS011;70062;51.658;5.658;2023-08-12T07:08:15;0.00;;;0.00;;
80698;SDS011;70062;51.658;5.658;2023-08-12T07:10:43;0.10;;;0.10;;
80698;SDS011;70062;51.658;5.658;2023-08-12T07:14:41;0.00;;;0.00;;
80698;SDS011;70062;51.658;5.658;2023-08-12T07:17:23;0.00;;;0.00;;
80698;SDS011;70062;51.658;5.658;2023-08-12T07:19:49;0.00;;;0.00;;
80698;SDS011;70062;51.658;5.658;2023-08-12T07:22:14;0.00;;;0.00;;
80698;SDS011;70062;51.658;5.658;2023-08-12T07:24:43;0.00;;;0.00;;
80698;SDS011;70062;51.658;5.658;2023-08-12T07:27:09;0.00;;;0.00;;
80698;SDS011;70062;51.658;5.658;2023-08-12T07:29:36;0.00;;;0.00;;
80698;SDS011;70062;51.658;5.658;2023-08-12T07:32:02;0.10;;;0.10;;
80698;SDS011;70062;51.658;5.658;2023-08-12T07:34:27;0.00;;;0.00;;
80698;SDS011;70062;51.658;5.658;2023-08-12T07:36:53;0.00;;;0.00;;
80698;SDS011;70062;51.658;5.658;2023-08-12T07:39:18;0.00;;;0.00;;
80698;SDS011;70062;51.658;5.658;2023-08-12T07:41:44;0.00;;;0.00;;
80698;SDS011;70062;51.658;5.658;2023-08-12T07:44:09;0.00;;;0.00;;
80698;SDS011;70062;51.658;5.658;2023-08-12T07:46:34;0.00;;;0.00;;
80698;SDS011;70062;51.658;5.658;2023-08-12T07:49:00;0.00;;;0.00;;
80698;SDS011;70062;51.658;5.658;2023-08-12T07:51:25;0.00;;;0.00;;
80698;SDS011;70062;51.658;5.658;2023-08-12T07:53:50;0.00;;;0.00;;
80698;SDS011;70062;51.658;5.658;2023-08-12T07:56:16;0.00;;;0.00;;
80698;SDS011;70062;51.658;5.658;2023-08-12T07:58:41;0.00;;;0.00;;
80698;SDS011;70062;51.658;5.658;2023-08-12T08:01:07;0.20;;;0.20;;
80698;SDS011;70062;51.658;5.658;2023-08-12T08:03:56;0.00;;;0.00;;
80698;SDS011;70062;51.658;5.658;2023-08-12T08:06:22;0.00;;;0.00;;
80698;SDS011;70062;51.658;5.658;2023-08-12T08:08:52;0.00;;;0.00;;
80698;SDS011;70062;51.658;5.658;2023-08-12T08:11:18;0.00;;;0.00;;
80698;SDS011;70062;51.658;5.658;2023-08-12T08:13:43;0.00;;;0.00;;
80698;SDS011;70062;51.658;5.658;2023-08-12T08:16:08;0.00;;;0.00;;
80698;SDS011;70062;51.658;5.658;2023-08-12T08:18:34;0.00;;;0.00;;
80698;SDS011;70062;51.658;5.658;2023-08-12T08:20:59;0.00;;;0.00;;
80698;SDS011;70062;51.658;5.658;2023-08-12T08:23:24;0.00;;;0.00;;
80698;SDS011;70062;51.658;5.658;2023-08-12T08:25:50;0.00;;;0.00;;
80698;SDS011;70062;51.658;5.658;2023-08-12T08:28:15;0.10;;;0.10;;
80698;SDS011;70062;51.658;5.658;2023-08-12T08:30:40;0.00;;;0.00;;
80698;SDS011;70062;51.658;5.658;2023-08-12T08:33:06;0.00;;;0.00;;
80698;SDS011;70062;51.658;5.658;2023-08-12T08:35:31;0.00;;;0.00;;
80698;SDS011;70062;51.658;5.658;2023-08-12T08:37:57;0.00;;;0.00;;
80698;SDS011;70062;51.658;5.658;2023-08-12T08:46:40;0.00;;;0.00;;
80698;SDS011;70062;51.658;5.658;2023-08-12T08:49:07;0.00;;;0.00;;
80698;SDS011;70062;51.658;5.658;2023-08-12T08:51:34;0.00;;;0.00;;
80698;SDS011;70062;51.658;5.658;2023-08-12T08:53:59;0.00;;;0.00;;
80698;SDS011;70062;51.658;5.658;2023-08-12T08:56:30;0.00;;;0.00;;
80698;SDS011;70062;51.658;5.658;2023-08-12T08:58:57;0.00;;;0.00;;
80698;SDS011;70062;51.658;5.658;2023-08-12T09:01:26;0.00;;;0.00;;
80698;SDS011;70062;51.658;5.658;2023-08-12T09:03:53;0.00;;;0.00;;
80698;SDS011;70062;51.658;5.658;2023-08-12T09:06:21;0.00;;;0.00;;
80698;SDS011;70062;51.658;5.658;2023-08-12T09:08:48;0.00;;;0.00;;
80698;SDS011;70062;51.658;5.658;2023-08-12T09:11:16;0.00;;;0.00;;
80698;SDS011;70062;51.658;5.658;2023-08-12T09:13:42;0.00;;;0.00;;
80698;SDS011;70062;51.658;5.658;2023-08-12T09:16:08;0.00;;;0.00;;
80698;SDS011;70062;51.658;5.658;2023-08-12T09:18:34;0.00;;;0.00;;
80698;SDS011;70062;51.658;5.658;2023-08-12T09:21:01;0.00;;;0.00;;
80698;SDS011;70062;51.658;5.658;2023-08-12T09:23:27;0.00;;;0.00;;
80698;SDS011;70062;51.658;5.658;2023-08-12T09:25:53;0.00;;;0.00;;
80698;SDS011;70062;51.658;5.658;2023-08-12T09:28:19;0.00;;;0.00;;
80698;SDS011;70062;51.658;5.658;2023-08-12T09:30:50;0.00;;;0.00;;
80698;SDS011;70062;51.658;5.658;2023-08-12T09:33:26;0.00;;;0.00;;
80698;SDS011;70062;51.658;5.658;2023-08-12T09:35:51;0.00;;;0.00;;
80698;SDS011;70062;51.658;5.658;2023-08-12T09:38:18;0.00;;;0.00;;
80698;SDS011;70062;51.658;5.658;2023-08-12T09:40:44;0.00;;;0.00;;
80698;SDS011;70062;51.658;5.658;2023-08-12T09:43:11;0.00;;;0.00;;
80698;SDS011;70062;51.658;5.658;2023-08-12T09:45:40;0.00;;;0.00;;
80698;SDS011;70062;51.658;5.658;2023-08-12T09:48:06;0.00;;;0.00;;
80698;SDS011;70062;51.658;5.658;2023-08-12T09:50:33;0.00;;;0.00;;
80698;SDS011;70062;51.658;5.658;2023-08-12T09:52:59;0.00;;;0.00;;
80698;SDS011;70062;51.658;5.658;2023-08-12T09:55:28;0.00;;;0.00;;
80698;SDS011;70062;51.658;5.658;2023-08-12T09:57:57;0.00;;;0.00;;
80698;SDS011;70062;51.658;5.658;2023-08-12T10:00:25;0.00;;;0.00;;
80698;SDS011;70062;51.658;5.658;2023-08-12T10:02:51;0.00;;;0.00;;
80698;SDS011;70062;51.658;5.658;2023-08-12T10:05:24;0.00;;;0.00;;
80698;SDS011;70062;51.658;5.658;2023-08-12T10:07:53;0.00;;;0.00;;
80698;SDS011;70062;51.658;5.658;2023-08-12T10:10:22;0.00;;;0.00;;
80698;SDS011;70062;51.658;5.658;2023-08-12T10:12:48;0.00;;;0.00;;
80698;SDS011;70062;51.658;5.658;2023-08-12T10:21:33;0.00;;;0.00;;
80698;SDS011;70062;51.658;5.658;2023-08-12T10:23:59;0.00;;;0.00;;
80698;SDS011;70062;51.658;5.658;2023-08-12T10:26:25;0.00;;;0.00;;
80698;SDS011;70062;51.658;5.658;2023-08-12T10:28:51;0.00;;;0.00;;
80698;SDS011;70062;51.658;5.658;2023-08-12T10:31:17;0.00;;;0.00;;
80698;SDS011;70062;51.658;5.658;2023-08-12T10:33:44;0.00;;;0.00;;
80698;SDS011;70062;51.658;5.658;2023-08-12T10:36:09;0.00;;;0.00;;
80698;SDS011;70062;51.658;5.658;2023-08-12T10:38:35;0.00;;;0.00;;
80698;SDS011;70062;51.658;5.658;2023-08-12T10:41:23;0.00;;;0.00;;
80698;SDS011;70062;51.658;5.658;2023-08-12T10:46:22;0.00;;;0.00;;
80698;SDS011;70062;51.658;5.658;2023-08-12T10:49:07;0.00;;;0.00;;
80698;SDS011;70062;51.658;5.658;2023-08-12T10:54:24;0.00;;;0.00;;
80698;SDS011;70062;51.658;5.658;2023-08-12T11:11:18;0.00;;;0.00;;
80698;SDS011;70062;51.658;5.658;2023-08-12T11:13:54;0.00;;;0.00;;
80698;SDS011;70062;51.658;5.658;2023-08-12T11:16:30;0.00;;;0.00;;
80698;SDS011;70062;51.658;5.658;2023-08-12T11:19:07;0.00;;;0.00;;
80698;SDS011;70062;51.658;5.658;2023-08-12T11:21:35;0.00;;;0.00;;
80698;SDS011;70062;51.658;5.658;2023-08-12T11:24:01;0.00;;;0.00;;
80698;SDS011;70062;51.658;5.658;2023-08-12T11:26:27;0.00;;;0.00;;
80698;SDS011;70062;51.658;5.658;2023-08-12T11:28:53;0.00;;;0.00;;
80698;SDS011;70062;51.658;5.658;2023-08-12T11:31:18;0.10;;;0.10;;
80698;SDS011;70062;51.658;5.658;2023-08-12T11:33:44;0.00;;;0.00;;
80698;SDS011;70062;51.658;5.658;2023-08-12T11:36:10;0.00;;;0.00;;
80698;SDS011;70062;51.658;5.658;2023-08-12T11:38:35;0.00;;;0.00;;
80698;SDS011;70062;51.658;5.658;2023-08-12T11:41:05;0.00;;;0.00;;
80698;SDS011;70062;51.658;5.658;2023-08-12T11:43:33;0.00;;;0.00;;
80698;SDS011;70062;51.658;5.658;2023-08-12T11:45:59;0.00;;;0.00;;
80698;SDS011;70062;51.658;5.658;2023-08-12T11:48:24;0.00;;;0.00;;
80698;SDS011;70062;51.658;5.658;2023-08-12T11:50:52;0.10;;;0.10;;
80698;SDS011;70062;51.658;5.658;2023-08-12T11:53:18;0.00;;;0.00;;
80698;SDS011;70062;51.658;5.658;2023-08-12T11:55:45;0.00;;;0.00;;
80698;SDS011;70062;51.658;5.658;2023-08-12T11:58:11;0.00;;;0.00;;
80698;SDS011;70062;51.658;5.658;2023-08-12T12:00:37;0.00;;;0.00;;
80698;SDS011;70062;51.658;5.658;2023-08-12T12:03:02;0.00;;;0.00;;
80698;SDS011;70062;51.658;5.658;2023-08-12T12:05:28;0.00;;;0.00;;
80698;SDS011;70062;51.658;5.658;2023-08-12T12:07:59;0.00;;;0.00;;
80698;SDS011;70062;51.658;5.658;2023-08-12T12:10:26;0.00;;;0.00;;
80698;SDS011;70062;51.658;5.658;2023-08-12T12:12:57;0.00;;;0.00;;
80698;SDS011;70062;51.658;5.658;2023-08-12T12:15:24;0.00;;;0.00;;
80698;SDS011;70062;51.658;5.658;2023-08-12T12:17:50;0.00;;;0.00;;
80698;SDS011;70062;51.658;5.658;2023-08-12T12:20:16;0.00;;;0.00;;
80698;SDS011;70062;51.658;5.658;2023-08-12T12:22:42;0.00;;;0.00;;
80698;SDS011;70062;51.658;5.658;2023-08-12T12:25:09;0.00;;;0.00;;
80698;SDS011;70062;51.658;5.658;2023-08-12T12:27:36;0.00;;;0.00;;
80698;SDS011;70062;51.658;5.658;2023-08-12T12:30:03;0.00;;;0.00;;
80698;SDS011;70062;51.658;5.658;2023-08-12T12:32:29;0.00;;;0.00;;
80698;SDS011;70062;51.658;5.658;2023-08-12T12:34:54;0.00;;;0.00;;
80698;SDS011;70062;51.658;5.658;2023-08-12T12:37:22;0.00;;;0.00;;
80698;SDS011;70062;51.658;5.658;2023-08-12T12:39:48;0.00;;;0.00;;
80698;SDS011;70062;51.658;5.658;2023-08-12T12:42:13;0.00;;;0.00;;
80698;SDS011;70062;51.658;5.658;2023-08-12T12:44:39;0.00;;;0.00;;
80698;SDS011;70062;51.658;5.658;2023-08-12T12:47:04;0.00;;;0.00;;
80698;SDS011;70062;51.658;5.658;2023-08-12T12:49:30;0.00;;;0.00;;
80698;SDS011;70062;51.658;5.658;2023-08-12T12:51:55;0.00;;;0.00;;
80698;SDS011;70062;51.658;5.658;2023-08-12T12:54:21;0.00;;;0.00;;
80698;SDS011;70062;51.658;5.658;2023-08-12T12:56:46;0.00;;;0.00;;
80698;SDS011;70062;51.658;5.658;2023-08-12T12:59:12;0.00;;;0.00;;
80698;SDS011;70062;51.658;5.658;2023-08-12T13:01:39;0.00;;;0.00;;
80698;SDS011;70062;51.658;5.658;2023-08-12T13:04:05;0.10;;;0.10;;
80698;SDS011;70062;51.658;5.658;2023-08-12T13:06:30;0.00;;;0.00;;
80698;SDS011;70062;51.658;5.658;2023-08-12T13:09:01;0.00;;;0.00;;
80698;SDS011;70062;51.658;5.658;2023-08-12T13:11:28;0.10;;;0.10;;
80698;SDS011;70062;51.658;5.658;2023-08-12T13:13:54;0.10;;;0.10;;
80698;SDS011;70062;51.658;5.658;2023-08-12T13:16:20;0.10;;;0.10;;
80698;SDS011;70062;51.658;5.658;2023-08-12T13:18:45;0.10;;;0.10;;
80698;SDS011;70062;51.658;5.658;2023-08-12T13:21:10;0.10;;;0.10;;
80698;SDS011;70062;51.658;5.658;2023-08-12T13:23:36;0.00;;;0.00;;
80698;SDS011;70062;51.658;5.658;2023-08-12T13:26:01;0.00;;;0.00;;
80698;SDS011;70062;51.658;5.658;2023-08-12T13:28:27;0.00;;;0.00;;
80698;SDS011;70062;51.658;5.658;2023-08-12T13:30:53;0.00;;;0.00;;
80698;SDS011;70062;51.658;5.658;2023-08-12T13:33:18;0.00;;;0.00;;
80698;SDS011;70062;51.658;5.658;2023-08-12T13:35:43;0.00;;;0.00;;
80698;SDS011;70062;51.658;5.658;2023-08-12T13:38:09;0.00;;;0.00;;
80698;SDS011;70062;51.658;5.658;2023-08-12T13:40:34;0.10;;;0.10;;
80698;SDS011;70062;51.658;5.658;2023-08-12T13:42:59;0.00;;;0.00;;
80698;SDS011;70062;51.658;5.658;2023-08-12T13:45:25;0.00;;;0.00;;
80698;SDS011;70062;51.658;5.658;2023-08-12T13:47:57;0.10;;;0.10;;
80698;SDS011;70062;51.658;5.658;2023-08-12T13:50:22;0.00;;;0.00;;
80698;SDS011;70062;51.658;5.658;2023-08-12T13:52:47;0.00;;;0.00;;
80698;SDS011;70062;51.658;5.658;2023-08-12T13:55:14;0.00;;;0.00;;
80698;SDS011;70062;51.658;5.658;2023-08-12T13:57:45;0.00;;;0.00;;
80698;SDS011;70062;51.658;5.658;2023-08-12T14:00:11;0.00;;;0.00;;
80698;SDS011;70062;51.658;5.658;2023-08-12T14:02:38;0.00;;;0.00;;
80698;SDS011;70062;51.658;5.658;2023-08-12T14:05:04;0.00;;;0.00;;
80698;SDS011;70062;51.658;5.658;2023-08-12T14:07:30;0.00;;;0.00;;
80698;SDS011;70062;51.658;5.658;2023-08-12T14:09:56;0.00;;;0.00;;
80698;SDS011;70062;51.658;5.658;2023-08-12T14:12:22;0.00;;;0.00;;
80698;SDS011;70062;51.658;5.658;2023-08-12T14:14:48;0.00;;;0.00;;
80698;SDS011;70062;51.658;5.658;2023-08-12T14:17:13;0.00;;;0.00;;
80698;SDS011;70062;51.658;5.658;2023-08-12T14:22:08;0.00;;;0.00;;
80698;SDS011;70062;51.658;5.658;2023-08-12T14:24:34;0.00;;;0.00;;
80698;SDS011;70062;51.658;5.658;2023-08-12T14:26:59;0.00;;;0.00;;
80698;SDS011;70062;51.658;5.658;2023-08-12T14:29:25;0.00;;;0.00;;
80698;SDS011;70062;51.658;5.658;2023-08-12T14:31:50;0.00;;;0.00;;
80698;SDS011;70062;51.658;5.658;2023-08-12T14:34:17;0.00;;;0.00;;
80698;SDS011;70062;51.658;5.658;2023-08-12T14:36:42;0.00;;;0.00;;
80698;SDS011;70062;51.658;5.658;2023-08-12T14:39:07;0.20;;;0.20;;
80698;SDS011;70062;51.658;5.658;2023-08-12T14:41:33;0.10;;;0.10;;
80698;SDS011;70062;51.658;5.658;2023-08-12T14:43:58;0.20;;;0.20;;
80698;SDS011;70062;51.658;5.658;2023-08-12T14:46:24;0.40;;;0.40;;
80698;SDS011;70062;51.658;5.658;2023-08-12T14:48:49;0.30;;;0.30;;
80698;SDS011;70062;51.658;5.658;2023-08-12T14:51:15;0.30;;;0.30;;
80698;SDS011;70062;51.658;5.658;2023-08-12T14:53:40;0.40;;;0.40;;
80698;SDS011;70062;51.658;5.658;2023-08-12T14:56:06;0.50;;;0.50;;
80698;SDS011;70062;51.658;5.658;2023-08-12T14:58:31;0.50;;;0.50;;
80698;SDS011;70062;51.658;5.658;2023-08-12T15:00:57;0.40;;;0.40;;
80698;SDS011;70062;51.658;5.658;2023-08-12T15:03:22;0.30;;;0.30;;
80698;SDS011;70062;51.658;5.658;2023-08-12T15:05:48;0.50;;;0.50;;
80698;SDS011;70062;51.658;5.658;2023-08-12T15:08:24;0.70;;;0.70;;
80698;SDS011;70062;51.658;5.658;2023-08-12T15:10:49;0.70;;;0.70;;
80698;SDS011;70062;51.658;5.658;2023-08-12T15:13:14;0.60;;;0.60;;
80698;SDS011;70062;51.658;5.658;2023-08-12T15:15:40;0.60;;;0.60;;
80698;SDS011;70062;51.658;5.658;2023-08-12T15:18:05;0.60;;;0.60;;
80698;SDS011;70062;51.658;5.658;2023-08-12T15:20:30;0.70;;;0.70;;
80698;SDS011;70062;51.658;5.658;2023-08-12T15:22:56;0.70;;;0.70;;
80698;SDS011;70062;51.658;5.658;2023-08-12T15:25:21;0.80;;;0.80;;